sensor_id;sensor_type;location;lat;lon;timestamp;pressure;altitude;pressure_sealevel;temperature;humidity
22031;BME280;11179;52.106;21.024;2022-10-16T00:01:12;100564.31;;;14.48;59.15
22031;BME280;11179;52.106;21.024;2022-10-16T00:03:38;100566.25;;;14.47;59.26
22031;BME280;11179;52.106;21.024;2022-10-16T00:06:04;100556.31;;;14.46;59.07
22031;BME280;11179;52.106;21.024;2022-10-16T00:08:30;100555.19;;;14.47;59.23
22031;BME280;11179;52.106;21.024;2022-10-16T00:11:05;100556.59;;;14.45;59.03
22031;BME280;11179;52.106;21.024;2022-10-16T00:13:32;100564.59;;;14.46;59.39
22031;BME280;11179;52.106;21.024;2022-10-16T00:15:58;100557.41;;;14.45;59.20
22031;BME280;11179;52.106;21.024;2022-10-16T00:18:24;100556.31;;;14.41;59.63
22031;BME280;11179;52.106;21.024;2022-10-16T00:20:50;100550.50;;;14.43;59.51
22031;BME280;11179;52.106;21.024;2022-10-16T00:23:16;100550.78;;;14.41;59.28
22031;BME280;11179;52.106;21.024;2022-10-16T00:25:41;100555.75;;;14.39;59.59
22031;BME280;11179;52.106;21.024;2022-10-16T00:28:06;100557.41;;;14.40;59.69
22031;BME280;11179;52.106;21.024;2022-10-16T00:30:32;100557.41;;;14.40;59.58
22031;BME280;11179;52.106;21.024;2022-10-16T00:32:57;100554.91;;;14.38;59.44
22031;BME280;11179;52.106;21.024;2022-10-16T00:35:22;100554.09;;;14.38;59.56
22031;BME280;11179;52.106;21.024;2022-10-16T00:37:48;100548.03;;;14.36;59.51
22031;BME280;11179;52.106;21.024;2022-10-16T00:40:13;100560.16;;;14.40;59.69
22031;BME280;11179;52.106;21.024;2022-10-16T00:42:38;100567.91;;;14.38;59.64
22031;BME280;11179;52.106;21.024;2022-10-16T00:45:04;100569.03;;;14.37;59.68
22031;BME280;11179;52.106;21.024;2022-10-16T00:47:36;100564.91;;;14.34;59.47
22031;BME280;11179;52.106;21.024;2022-10-16T00:50:29;100580.09;;;14.37;59.60
22031;BME280;11179;52.106;21.024;2022-10-16T00:52:57;100577.31;;;14.37;59.51
22031;BME280;11179;52.106;21.024;2022-10-16T00:55:24;100564.91;;;14.34;59.52
22031;BME280;11179;52.106;21.024;2022-10-16T00:57:51;100574.56;;;14.37;59.46
22031;BME280;11179;52.106;21.024;2022-10-16T01:00:20;100561.56;;;14.32;59.73
22031;BME280;11179;52.106;21.024;2022-10-16T01:05:21;100569.31;;;14.35;59.48
22031;BME280;11179;52.106;21.024;2022-10-16T01:10:38;100575.66;;;14.36;59.51
22031;BME280;11179;52.106;21.024;2022-10-16T01:13:19;100577.31;;;14.37;59.53
22031;BME280;11179;52.106;21.024;2022-10-16T01:16:06;100577.31;;;14.37;59.46
22031;BME280;11179;52.106;21.024;2022-10-16T01:18:44;100581.19;;;14.36;59.56
22031;BME280;11179;52.106;21.024;2022-10-16T01:21:13;100569.03;;;14.32;59.53
22031;BME280;11179;52.106;21.024;2022-10-16T01:32:10;100583.94;;;14.31;59.80
22031;BME280;11179;52.106;21.024;2022-10-16T01:34:42;100582.56;;;14.28;60.00
22031;BME280;11179;52.106;21.024;2022-10-16T01:37:20;100589.47;;;14.26;60.42
22031;BME280;11179;52.106;21.024;2022-10-16T01:39:49;100596.66;;;14.22;60.50
22031;BME280;11179;52.106;21.024;2022-10-16T01:42:21;100595.84;;;14.21;60.83
22031;BME280;11179;52.106;21.024;2022-10-16T01:44:49;100591.97;;;14.17;61.08
22031;BME280;11179;52.106;21.024;2022-10-16T01:47:16;100600.81;;;14.19;61.20
22031;BME280;11179;52.106;21.024;2022-10-16T01:49:43;100587.00;;;14.14;61.38
22031;BME280;11179;52.106;21.024;2022-10-16T01:52:14;100591.69;;;14.14;61.50
22031;BME280;11179;52.106;21.024;2022-10-16T01:54:43;100595.00;;;14.16;61.59
22031;BME280;11179;52.106;21.024;2022-10-16T01:57:11;100590.56;;;14.15;61.70
22031;BME280;11179;52.106;21.024;2022-10-16T01:59:43;100590.03;;;14.18;61.43
22031;BME280;11179;52.106;21.024;2022-10-16T02:02:10;100595.00;;;14.21;61.60
22031;BME280;11179;52.106;21.024;2022-10-16T02:04:39;100584.25;;;14.19;61.59
22031;BME280;11179;52.106;21.024;2022-10-16T02:07:07;100585.06;;;14.20;61.48
22031;BME280;11179;52.106;21.024;2022-10-16T02:09:34;100582.31;;;14.15;61.68
22031;BME280;11179;52.106;21.024;2022-10-16T02:12:11;100582.03;;;14.16;61.70
22031;BME280;11179;52.106;21.024;2022-10-16T02:14:39;100587.25;;;14.13;61.78
22031;BME280;11179;52.106;21.024;2022-10-16T02:17:11;100586.72;;;14.16;61.62
22031;BME280;11179;52.106;21.024;2022-10-16T02:19:36;100588.66;;;14.15;61.35
22031;BME280;11179;52.106;21.024;2022-10-16T02:22:06;100577.59;;;14.15;61.56
22031;BME280;11179;52.106;21.024;2022-10-16T02:27:12;100577.63;;;14.10;61.40
22031;BME280;11179;52.106;21.024;2022-10-16T02:29:41;100576.78;;;14.10;61.32
22031;BME280;11179;52.106;21.024;2022-10-16T02:32:10;100574.03;;;14.10;61.65
22031;BME280;11179;52.106;21.024;2022-10-16T02:34:39;100580.94;;;14.07;61.56
22031;BME280;11179;52.106;21.024;2022-10-16T02:37:06;100592.53;;;14.09;61.38
22031;BME280;11179;52.106;21.024;2022-10-16T02:39:32;100571.81;;;14.01;61.54
22031;BME280;11179;52.106;21.024;2022-10-16T02:41:58;100589.50;;;14.06;61.69
22031;BME280;11179;52.106;21.024;2022-10-16T02:44:24;100592.53;;;14.04;61.58
22031;BME280;11179;52.106;21.024;2022-10-16T02:46:49;100591.97;;;14.02;61.46
22031;BME280;11179;52.106;21.024;2022-10-16T02:49:14;100601.34;;;14.06;61.50
22031;BME280;11179;52.106;21.024;2022-10-16T02:51:40;100590.31;;;14.06;61.66
22031;BME280;11179;52.106;21.024;2022-10-16T02:54:05;100598.31;;;14.08;61.82
22031;BME280;11179;52.106;21.024;2022-10-16T02:56:31;100601.38;;;14.11;61.64
22031;BME280;11179;52.106;21.024;2022-10-16T02:58:56;100598.63;;;14.11;61.57
22031;BME280;11179;52.106;21.024;2022-10-16T03:01:22;100600.25;;;14.07;61.87
22031;BME280;11179;52.106;21.024;2022-10-16T03:03:48;100607.16;;;14.10;61.80
22031;BME280;11179;52.106;21.024;2022-10-16T03:06:13;100600.53;;;14.06;61.74
22031;BME280;11179;52.106;21.024;2022-10-16T03:08:38;100608.81;;;14.06;61.62
22031;BME280;11179;52.106;21.024;2022-10-16T03:11:04;100605.50;;;14.09;61.76
22031;BME280;11179;52.106;21.024;2022-10-16T03:13:29;100603.56;;;14.04;61.78
22031;BME280;11179;52.106;21.024;2022-10-16T03:15:55;100604.66;;;14.03;61.84
22031;BME280;11179;52.106;21.024;2022-10-16T03:18:20;100608.53;;;14.07;61.72
22031;BME280;11179;52.106;21.024;2022-10-16T03:20:45;100615.44;;;14.04;61.77
22031;BME280;11179;52.106;21.024;2022-10-16T03:23:11;100610.47;;;14.01;61.57
22031;BME280;11179;52.106;21.024;2022-10-16T03:25:36;100613.78;;;14.03;61.62
22031;BME280;11179;52.106;21.024;2022-10-16T03:28:02;100611.56;;;14.00;61.71
22031;BME280;11179;52.106;21.024;2022-10-16T03:30:28;100620.97;;;14.04;61.80
22031;BME280;11179;52.106;21.024;2022-10-16T03:32:53;100632.00;;;14.04;61.70
22031;BME280;11179;52.106;21.024;2022-10-16T03:35:23;100623.16;;;14.02;61.71
22031;BME280;11179;52.106;21.024;2022-10-16T03:37:48;100622.59;;;14.00;61.47
22031;BME280;11179;52.106;21.024;2022-10-16T03:40:14;100635.03;;;14.03;61.76
22031;BME280;11179;52.106;21.024;2022-10-16T03:42:40;100632.81;;;14.00;61.56
22031;BME280;11179;52.106;21.024;2022-10-16T03:45:05;100637.50;;;13.99;61.46
22031;BME280;11179;52.106;21.024;2022-10-16T03:47:31;100625.38;;;13.95;61.68
22031;BME280;11179;52.106;21.024;2022-10-16T03:49:58;100636.97;;;13.97;61.43
22031;BME280;11179;52.106;21.024;2022-10-16T03:52:24;100639.44;;;13.99;61.67
22031;BME280;11179;52.106;21.024;2022-10-16T03:54:49;100632.00;;;13.94;61.67
22031;BME280;11179;52.106;21.024;2022-10-16T03:57:14;100636.16;;;13.97;61.67
22031;BME280;11179;52.106;21.024;2022-10-16T03:59:40;100630.31;;;13.98;61.55
22031;BME280;11179;52.106;21.024;2022-10-16T04:02:05;100627.03;;;13.96;61.53
22031;BME280;11179;52.106;21.024;2022-10-16T04:04:30;100634.50;;;13.96;61.35
22031;BME280;11179;52.106;21.024;2022-10-16T04:06:56;100636.16;;;13.97;61.51
22031;BME280;11179;52.106;21.024;2022-10-16T04:09:21;100637.53;;;13.94;61.35
22031;BME280;11179;52.106;21.024;2022-10-16T04:11:46;100627.56;;;13.88;61.47
22031;BME280;11179;52.106;21.024;2022-10-16T04:14:12;100646.91;;;13.93;61.30
22031;BME280;11179;52.106;21.024;2022-10-16T04:16:37;100647.44;;;13.90;61.27
22031;BME280;11179;52.106;21.024;2022-10-16T04:19:03;100639.69;;;13.87;61.55
22031;BME280;11179;52.106;21.024;2022-10-16T04:21:28;100639.97;;;13.81;61.61
22031;BME280;11179;52.106;21.024;2022-10-16T04:23:53;100637.47;;;13.74;61.46
22031;BME280;11179;52.106;21.024;2022-10-16T04:26:19;100647.94;;;13.67;61.81
22031;BME280;11179;52.106;21.024;2022-10-16T04:28:44;100655.41;;;13.66;61.76
22031;BME280;11179;52.106;21.024;2022-10-16T04:31:09;100649.03;;;13.61;61.82
22031;BME280;11179;52.106;21.024;2022-10-16T04:33:35;100647.94;;;13.62;61.80
22031;BME280;11179;52.106;21.024;2022-10-16T04:36:01;100665.03;;;13.64;61.97
22031;BME280;11179;52.106;21.024;2022-10-16T04:38:27;100666.94;;;13.58;61.88
22031;BME280;11179;52.106;21.024;2022-10-16T04:40:52;100667.50;;;13.60;62.19
22031;BME280;11179;52.106;21.024;2022-10-16T04:43:18;100666.41;;;13.56;61.76
22031;BME280;11179;52.106;21.024;2022-10-16T04:45:44;100659.44;;;13.44;61.96
22031;BME280;11179;52.106;21.024;2022-10-16T04:48:09;100671.00;;;13.41;62.11
22031;BME280;11179;52.106;21.024;2022-10-16T04:50:34;100666.28;;;13.31;62.14
22031;BME280;11179;52.106;21.024;2022-10-16T04:53:00;100667.88;;;13.22;62.34
22031;BME280;11179;52.106;21.024;2022-10-16T04:55:25;100673.09;;;13.18;62.50
22031;BME280;11179;52.106;21.024;2022-10-16T04:57:51;100673.09;;;13.18;62.41
22031;BME280;11179;52.106;21.024;2022-10-16T05:00:16;100675.84;;;13.13;62.55
22031;BME280;11179;52.106;21.024;2022-10-16T05:02:42;100666.97;;;13.06;62.61
22031;BME280;11179;52.106;21.024;2022-10-16T05:05:07;100670.00;;;13.05;62.66
22031;BME280;11179;52.106;21.024;2022-10-16T05:07:32;100684.59;;;13.05;62.65
22031;BME280;11179;52.106;21.024;2022-10-16T05:09:58;100669.97;;;13.00;62.72
22031;BME280;11179;52.106;21.024;2022-10-16T05:12:23;100677.69;;;12.97;62.75
22031;BME280;11179;52.106;21.024;2022-10-16T05:14:48;100688.50;;;13.04;62.88
22031;BME280;11179;52.106;21.024;2022-10-16T05:17:14;100686.00;;;13.03;62.71
22031;BME280;11179;52.106;21.024;2022-10-16T05:19:39;100689.84;;;13.02;62.63
22031;BME280;11179;52.106;21.024;2022-10-16T05:22:04;100694.53;;;13.01;62.62
22031;BME280;11179;52.106;21.024;2022-10-16T05:24:30;100690.63;;;12.97;62.83
22031;BME280;11179;52.106;21.024;2022-10-16T05:26:55;100693.44;;;13.07;62.70
22031;BME280;11179;52.106;21.024;2022-10-16T05:29:21;100700.91;;;13.12;62.83
22031;BME280;11179;52.106;21.024;2022-10-16T05:31:46;100705.06;;;13.14;62.98
22031;BME280;11179;52.106;21.024;2022-10-16T05:34:11;100696.81;;;13.14;62.83
22031;BME280;11179;52.106;21.024;2022-10-16T05:36:37;100691.28;;;13.14;63.00
22031;BME280;11179;52.106;21.024;2022-10-16T05:39:03;100694.88;;;13.20;62.79
22031;BME280;11179;52.106;21.024;2022-10-16T05:41:28;100683.84;;;13.20;62.66
22031;BME280;11179;52.106;21.024;2022-10-16T05:43:53;100687.44;;;13.20;62.48
22031;BME280;11179;52.106;21.024;2022-10-16T05:46:20;100695.19;;;13.23;62.75
22031;BME280;11179;52.106;21.024;2022-10-16T05:48:45;100694.34;;;13.23;62.65
22031;BME280;11179;52.106;21.024;2022-10-16T05:51:13;100697.47;;;13.37;62.79
22031;BME280;11179;52.106;21.024;2022-10-16T05:53:39;100703.88;;;13.52;62.57
22031;BME280;11179;52.106;21.024;2022-10-16T05:56:06;100708.06;;;13.60;62.46
22031;BME280;11179;52.106;21.024;2022-10-16T05:58:34;100708.66;;;13.67;62.24
22031;BME280;11179;52.106;21.024;2022-10-16T06:01:10;100711.97;;;13.69;62.29
22031;BME280;11179;52.106;21.024;2022-10-16T06:03:35;100710.06;;;13.80;62.17
22031;BME280;11179;52.106;21.024;2022-10-16T06:06:11;100712.63;;;14.07;61.75
22031;BME280;11179;52.106;21.024;2022-10-16T06:08:37;100718.75;;;14.34;60.99
22031;BME280;11179;52.106;21.024;2022-10-16T06:11:05;100722.06;;;14.56;60.73
22031;BME280;11179;52.106;21.024;2022-10-16T06:13:31;100721.25;;;14.86;60.30
22031;BME280;11179;52.106;21.024;2022-10-16T06:15:58;100719.53;;;15.21;59.32
22031;BME280;11179;52.106;21.024;2022-10-16T06:18:25;100712.84;;;15.37;58.62
22031;BME280;11179;52.106;21.024;2022-10-16T06:20:50;100724.47;;;15.44;58.40
22031;BME280;11179;52.106;21.024;2022-10-16T06:23:15;100728.56;;;15.46;58.18
22031;BME280;11179;52.106;21.024;2022-10-16T06:25:41;100711.75;;;15.33;57.98
22031;BME280;11179;52.106;21.024;2022-10-16T06:28:06;100726.72;;;15.22;58.35
22031;BME280;11179;52.106;21.024;2022-10-16T06:30:31;100729.50;;;15.12;58.27
22031;BME280;11179;52.106;21.024;2022-10-16T06:32:57;100728.44;;;15.02;58.37
22031;BME280;11179;52.106;21.024;2022-10-16T06:35:22;100728.69;;;15.11;58.38
22031;BME280;11179;52.106;21.024;2022-10-16T06:37:47;100730.88;;;15.29;58.03
22031;BME280;11179;52.106;21.024;2022-10-16T06:40:13;100738.53;;;15.53;57.73
22031;BME280;11179;52.106;21.024;2022-10-16T06:42:39;100734.88;;;15.72;57.24
22031;BME280;11179;52.106;21.024;2022-10-16T06:45:05;100726.28;;;15.74;57.26
22031;BME280;11179;52.106;21.024;2022-10-16T06:47:31;100734.63;;;15.59;57.21
22031;BME280;11179;52.106;21.024;2022-10-16T06:49:56;100730.25;;;15.48;57.35
22031;BME280;11179;52.106;21.024;2022-10-16T06:52:21;100739.34;;;15.68;57.47
22031;BME280;11179;52.106;21.024;2022-10-16T06:54:47;100748.97;;;15.81;57.17
22031;BME280;11179;52.106;21.024;2022-10-16T06:57:12;100742.00;;;15.89;57.24
22031;BME280;11179;52.106;21.024;2022-10-16T06:59:37;100743.84;;;16.08;56.94
22031;BME280;11179;52.106;21.024;2022-10-16T07:02:03;100748.34;;;16.38;56.47
22031;BME280;11179;52.106;21.024;2022-10-16T07:04:28;100751.09;;;16.43;56.18
22031;BME280;11179;52.106;21.024;2022-10-16T07:06:53;100753.84;;;16.43;56.18
22031;BME280;11179;52.106;21.024;2022-10-16T07:09:19;100758.56;;;16.43;56.24
22031;BME280;11179;52.106;21.024;2022-10-16T07:11:44;100761.41;;;16.33;56.07
22031;BME280;11179;52.106;21.024;2022-10-16T07:14:17;100765.59;;;16.25;56.28
22031;BME280;11179;52.106;21.024;2022-10-16T07:16:43;100771.50;;;16.13;56.46
22031;BME280;11179;52.106;21.024;2022-10-16T07:19:09;100766.03;;;16.03;56.71
22031;BME280;11179;52.106;21.024;2022-10-16T07:21:36;100772.41;;;15.99;56.64
22031;BME280;11179;52.106;21.024;2022-10-16T07:24:04;100761.09;;;15.90;56.79
22031;BME280;11179;52.106;21.024;2022-10-16T07:26:32;100763.09;;;15.79;56.91
22031;BME280;11179;52.106;21.024;2022-10-16T07:28:58;100776.09;;;15.84;57.09
22031;BME280;11179;52.106;21.024;2022-10-16T07:31:24;100766.16;;;15.78;57.16
22031;BME280;11179;52.106;21.024;2022-10-16T07:33:49;100771.34;;;15.90;57.13
22031;BME280;11179;52.106;21.024;2022-10-16T07:36:16;100742.81;;;15.94;57.23
22031;BME280;11179;52.106;21.024;2022-10-16T07:38:43;100738.94;;;15.90;57.17
22031;BME280;11179;52.106;21.024;2022-10-16T07:41:14;100740.38;;;16.32;57.04
22031;BME280;11179;52.106;21.024;2022-10-16T07:43:40;100751.94;;;16.78;56.14
22031;BME280;11179;52.106;21.024;2022-10-16T07:46:09;100772.94;;;17.18;55.53
22031;BME280;11179;52.106;21.024;2022-10-16T07:48:35;100760.00;;;17.61;55.10
22031;BME280;11179;52.106;21.024;2022-10-16T07:51:03;100761.53;;;17.96;54.20
22031;BME280;11179;52.106;21.024;2022-10-16T07:53:29;100767.19;;;18.28;53.92
22031;BME280;11179;52.106;21.024;2022-10-16T07:56:02;100767.88;;;18.58;52.45
22031;BME280;11179;52.106;21.024;2022-10-16T07:58:29;100745.03;;;18.61;52.20
22031;BME280;11179;52.106;21.024;2022-10-16T08:00:55;100770.53;;;19.01;51.68
22031;BME280;11179;52.106;21.024;2022-10-16T08:03:20;100779.22;;;19.13;51.30
22031;BME280;11179;52.106;21.024;2022-10-16T08:05:46;100764.00;;;19.24;50.78
22031;BME280;11179;52.106;21.024;2022-10-16T08:08:16;100767.72;;;19.33;50.35
22031;BME280;11179;52.106;21.024;2022-10-16T08:10:42;100762.47;;;19.45;50.34
22031;BME280;11179;52.106;21.024;2022-10-16T08:13:07;100766.28;;;19.49;49.96
22031;BME280;11179;52.106;21.024;2022-10-16T08:15:33;100771.47;;;19.69;49.89
22031;BME280;11179;52.106;21.024;2022-10-16T08:18:03;100781.66;;;19.88;49.52
22031;BME280;11179;52.106;21.024;2022-10-16T08:20:31;100780.75;;;20.06;49.03
22031;BME280;11179;52.106;21.024;2022-10-16T08:22:56;100786.31;;;20.20;48.72
22031;BME280;11179;52.106;21.024;2022-10-16T08:25:23;100783.84;;;20.18;48.16
22031;BME280;11179;52.106;21.024;2022-10-16T08:27:49;100779.91;;;20.19;48.10
22031;BME280;11179;52.106;21.024;2022-10-16T08:30:15;100785.88;;;20.26;48.01
22031;BME280;11179;52.106;21.024;2022-10-16T08:32:41;100785.88;;;20.26;47.63
22031;BME280;11179;52.106;21.024;2022-10-16T08:35:08;100779.50;;;20.12;47.70
22031;BME280;11179;52.106;21.024;2022-10-16T08:37:34;100795.63;;;20.01;48.13
22031;BME280;11179;52.106;21.024;2022-10-16T08:40:00;100795.22;;;19.81;48.18
22031;BME280;11179;52.106;21.024;2022-10-16T08:42:39;100791.97;;;19.60;48.68
22031;BME280;11179;52.106;21.024;2022-10-16T08:45:26;100798.78;;;19.40;48.78
22031;BME280;11179;52.106;21.024;2022-10-16T08:48:22;100795.53;;;19.19;49.37
22031;BME280;11179;52.106;21.024;2022-10-16T08:50:51;100806.66;;;19.19;49.54
22031;BME280;11179;52.106;21.024;2022-10-16T08:53:28;100796.88;;;19.22;49.83
22031;BME280;11179;52.106;21.024;2022-10-16T08:55:55;100806.28;;;19.26;50.11
22031;BME280;11179;52.106;21.024;2022-10-16T08:58:22;100794.09;;;19.22;50.00
22031;BME280;11179;52.106;21.024;2022-10-16T09:00:55;100808.25;;;19.25;50.28
22031;BME280;11179;52.106;21.024;2022-10-16T09:20:33;100827.25;;;19.37;49.93
22031;BME280;11179;52.106;21.024;2022-10-16T09:25:30;100820.13;;;19.58;50.71
22031;BME280;11179;52.106;21.024;2022-10-16T09:27:57;100796.44;;;19.75;50.46
22031;BME280;11179;52.106;21.024;2022-10-16T09:30:27;100794.56;;;19.97;50.16
22031;BME280;11179;52.106;21.024;2022-10-16T09:32:53;100799.81;;;20.26;49.67
22031;BME280;11179;52.106;21.024;2022-10-16T09:35:22;100781.03;;;20.32;49.63
22031;BME280;11179;52.106;21.024;2022-10-16T09:37:51;100803.81;;;20.48;49.23
22031;BME280;11179;52.106;21.024;2022-10-16T09:40:47;100805.88;;;20.42;48.66
22031;BME280;11179;52.106;21.024;2022-10-16T09:43:26;100793.91;;;20.42;48.96
22031;BME280;11179;52.106;21.024;2022-10-16T09:48:27;100800.41;;;20.73;48.75
22031;BME280;11179;52.106;21.024;2022-10-16T09:51:01;100798.28;;;20.92;48.62
22031;BME280;11179;52.106;21.024;2022-10-16T09:53:40;100781.47;;;21.06;48.34
22031;BME280;11179;52.106;21.024;2022-10-16T09:56:07;100787.63;;;21.17;48.09
22031;BME280;11179;52.106;21.024;2022-10-16T09:58:32;100792.03;;;21.18;47.70
22031;BME280;11179;52.106;21.024;2022-10-16T10:00:59;100788.38;;;21.08;47.89
22031;BME280;11179;52.106;21.024;2022-10-16T10:03:39;100795.56;;;21.01;47.64
22031;BME280;11179;52.106;21.024;2022-10-16T10:06:18;100793.03;;;20.91;48.33
22031;BME280;11179;52.106;21.024;2022-10-16T10:08:57;100792.69;;;20.92;48.51
22031;BME280;11179;52.106;21.024;2022-10-16T10:11:39;100794.00;;;20.86;48.20
22031;BME280;11179;52.106;21.024;2022-10-16T10:14:09;100788.22;;;20.83;48.35
22031;BME280;11179;52.106;21.024;2022-10-16T10:16:38;100803.88;;;20.92;48.07
22031;BME280;11179;52.106;21.024;2022-10-16T10:19:04;100804.19;;;20.91;48.22
22031;BME280;11179;52.106;21.024;2022-10-16T10:21:32;100795.44;;;20.84;48.16
22031;BME280;11179;52.106;21.024;2022-10-16T10:23:58;100808.47;;;20.88;48.26
22031;BME280;11179;52.106;21.024;2022-10-16T10:26:27;100796.25;;;20.84;48.27
22031;BME280;11179;52.106;21.024;2022-10-16T10:39:57;100788.81;;;21.24;47.56
22031;BME280;11179;52.106;21.024;2022-10-16T10:52:59;100787.88;;;21.29;47.48
22031;BME280;11179;52.106;21.024;2022-10-16T10:55:43;100788.53;;;21.34;47.60
22031;BME280;11179;52.106;21.024;2022-10-16T11:09:00;100797.56;;;21.54;47.24
22031;BME280;11179;52.106;21.024;2022-10-16T11:11:38;100783.91;;;21.52;47.05
22031;BME280;11179;52.106;21.024;2022-10-16T11:14:19;100782.94;;;21.57;47.27
22031;BME280;11179;52.106;21.024;2022-10-16T11:19:44;100782.50;;;21.41;46.76
22031;BME280;11179;52.106;21.024;2022-10-16T11:22:29;100777.66;;;21.24;47.33
22031;BME280;11179;52.106;21.024;2022-10-16T11:25:19;100775.81;;;21.20;47.23
22031;BME280;11179;52.106;21.024;2022-10-16T11:27:53;100778.09;;;21.18;47.31
22031;BME280;11179;52.106;21.024;2022-10-16T11:30:28;100781.72;;;21.18;47.04
22031;BME280;11179;52.106;21.024;2022-10-16T11:36:04;100801.53;;;21.08;47.18
22031;BME280;11179;52.106;21.024;2022-10-16T11:41:22;100789.72;;;21.11;47.32
22031;BME280;11179;52.106;21.024;2022-10-16T11:46:28;100785.31;;;21.19;47.25
22031;BME280;11179;52.106;21.024;2022-10-16T11:51:38;100791.50;;;21.07;47.45
22031;BME280;11179;52.106;21.024;2022-10-16T11:54:16;100788.28;;;21.14;47.62
22031;BME280;11179;52.106;21.024;2022-10-16T11:56:45;100786.84;;;21.25;47.32
22031;BME280;11179;52.106;21.024;2022-10-16T11:59:41;100780.75;;;21.23;47.44
22031;BME280;11179;52.106;21.024;2022-10-16T12:04:45;100773.63;;;21.39;47.51
22031;BME280;11179;52.106;21.024;2022-10-16T12:07:15;100774.63;;;21.43;47.04
22031;BME280;11179;52.106;21.024;2022-10-16T12:09:42;100776.41;;;21.39;47.24
22031;BME280;11179;52.106;21.024;2022-10-16T12:12:36;100777.56;;;21.38;47.43
22031;BME280;11179;52.106;21.024;2022-10-16T12:17:38;100785.31;;;21.41;47.35
22031;BME280;11179;52.106;21.024;2022-10-16T12:22:56;100786.78;;;21.47;46.87
22031;BME280;11179;52.106;21.024;2022-10-16T12:25:39;100788.44;;;21.48;47.21
22031;BME280;11179;52.106;21.024;2022-10-16T12:28:21;100793.03;;;21.44;47.30
22031;BME280;11179;52.106;21.024;2022-10-16T12:30:55;100774.06;;;21.32;47.13
22031;BME280;11179;52.106;21.024;2022-10-16T12:35:49;100786.72;;;21.30;47.26
22031;BME280;11179;52.106;21.024;2022-10-16T12:40:42;100787.41;;;21.35;47.43
22031;BME280;11179;52.106;21.024;2022-10-16T12:48:32;100799.38;;;21.58;47.50
22031;BME280;11179;52.106;21.024;2022-10-16T12:51:51;100795.28;;;21.64;47.19
22031;BME280;11179;52.106;21.024;2022-10-16T12:54:11;100793.00;;;21.66;46.85
22031;BME280;11179;52.106;21.024;2022-10-16T13:07:51;100795.91;;;21.92;46.67
22031;BME280;11179;52.106;21.024;2022-10-16T13:15:41;100796.16;;;21.73;47.08
22031;BME280;11179;52.106;21.024;2022-10-16T13:18:21;100795.25;;;21.56;46.99
22031;BME280;11179;52.106;21.024;2022-10-16T13:28:52;100815.91;;;21.24;47.90
22031;BME280;11179;52.106;21.024;2022-10-16T13:31:24;100813.72;;;21.12;48.07
22031;BME280;11179;52.106;21.024;2022-10-16T13:33:52;100821.56;;;21.10;48.32
22031;BME280;11179;52.106;21.024;2022-10-16T13:36:29;100824.94;;;20.98;48.46
22031;BME280;11179;52.106;21.024;2022-10-16T13:39:33;100825.47;;;21.00;48.21
22031;BME280;11179;52.106;21.024;2022-10-16T13:42:05;100820.00;;;20.95;48.47
22031;BME280;11179;52.106;21.024;2022-10-16T13:44:52;100836.13;;;20.98;48.73
22031;BME280;11179;52.106;21.024;2022-10-16T13:47:22;100828.88;;;20.97;49.19
22031;BME280;11179;52.106;21.024;2022-10-16T13:50:12;100833.31;;;20.98;48.98
22031;BME280;11179;52.106;21.024;2022-10-16T13:52:38;100837.25;;;20.97;49.30
22031;BME280;11179;52.106;21.024;2022-10-16T13:55:14;100828.00;;;20.88;49.09
22031;BME280;11179;52.106;21.024;2022-10-16T13:57:40;100830.13;;;20.91;49.15
22031;BME280;11179;52.106;21.024;2022-10-16T14:00:24;100832.59;;;20.93;49.56
22031;BME280;11179;52.106;21.024;2022-10-16T14:02:58;100839.66;;;20.90;49.42
22031;BME280;11179;52.106;21.024;2022-10-16T14:05:27;100830.28;;;20.86;49.44
22031;BME280;11179;52.106;21.024;2022-10-16T14:07:56;100824.19;;;20.84;49.67
22031;BME280;11179;52.106;21.024;2022-10-16T14:10:29;100825.44;;;20.78;49.84
22031;BME280;11179;52.106;21.024;2022-10-16T14:13:03;100825.22;;;20.74;49.51
22031;BME280;11179;52.106;21.024;2022-10-16T14:15:34;100825.44;;;20.64;49.89
22031;BME280;11179;52.106;21.024;2022-10-16T14:18:01;100814.94;;;20.61;50.26
22031;BME280;11179;52.106;21.024;2022-10-16T14:20:30;100832.28;;;20.58;50.14
22031;BME280;11179;52.106;21.024;2022-10-16T14:23:23;100834.38;;;20.53;50.27
22031;BME280;11179;52.106;21.024;2022-10-16T14:25:53;100828.72;;;20.44;50.40
22031;BME280;11179;52.106;21.024;2022-10-16T14:28:22;100842.28;;;20.37;50.11
22031;BME280;11179;52.106;21.024;2022-10-16T14:36:05;100855.59;;;20.26;50.63
22031;BME280;11179;52.106;21.024;2022-10-16T14:38:32;100855.59;;;20.26;50.56
22031;BME280;11179;52.106;21.024;2022-10-16T14:40:59;100862.50;;;20.29;50.71
22031;BME280;11179;52.106;21.024;2022-10-16T14:43:41;100856.94;;;20.29;50.98
22031;BME280;11179;52.106;21.024;2022-10-16T14:46:12;100856.22;;;20.23;50.79
22031;BME280;11179;52.106;21.024;2022-10-16T14:48:49;100847.22;;;20.26;51.09
22031;BME280;11179;52.106;21.024;2022-10-16T14:51:17;100857.16;;;20.32;50.84
22031;BME280;11179;52.106;21.024;2022-10-16T14:53:43;100854.44;;;20.27;50.98
22031;BME280;11179;52.106;21.024;2022-10-16T14:56:17;100850.13;;;20.21;51.18
22031;BME280;11179;52.106;21.024;2022-10-16T14:58:43;100851.59;;;20.19;51.21
22031;BME280;11179;52.106;21.024;2022-10-16T15:01:09;100852.81;;;20.13;51.32
22031;BME280;11179;52.106;21.024;2022-10-16T15:03:36;100854.78;;;20.12;51.15